Time;durP1;ratioP1;P1;durP2;ratioP2;P2;SDS_P1;SDS_P2;PMS_P1;PMS_P2;Temp;Humidity;BMP_temperature;BMP_pressure;BME280_temperature;BME280_humidity;BME280_pressure;Samples;Min_cycle;Max_cycle;Signal;HPM_P1;HPM_P2
2022/11/20 00:01:19;;;;;;;177.50;107.40;;;;;;;-5.95;100.00;98714.52;105616;1294;73738;-81
2022/11/20 00:03:46;;;;;;;170.80;102.00;;;;;;;-5.93;100.00;98716.05;105500;1299;58241;-81
2022/11/20 00:06:14;;;;;;;168.50;103.30;;;;;;;-5.93;100.00;98716.89;105528;1299;58261;-83
2022/11/20 00:08:42;;;;;;;160.00;99.50;;;;;;;-5.93;100.00;98715.89;105795;1293;65069;-82
2022/11/20 00:11:10;;;;;;;164.40;99.00;;;;;;;-5.95;100.00;98710.36;105713;1293;58196;-82
2022/11/20 00:13:36;;;;;;;167.90;99.40;;;;;;;-5.97;100.00;98710.89;105740;1293;64749;-83
2022/11/20 00:16:05;;;;;;;163.10;102.30;;;;;;;-6.01;100.00;98708.84;105792;1292;58119;-83
2022/11/20 00:18:33;;;;;;;164.50;99.30;;;;;;;-6.04;100.00;98704.54;105732;1292;58132;-82
2022/11/20 00:21:24;;;;;;;171.30;104.60;;;;;;;-6.05;100.00;98699.87;105731;1293;73507;-83
2022/11/20 00:23:53;;;;;;;174.30;107.20;;;;;;;-6.06;100.00;98704.71;105321;1295;60118;-83
2022/11/20 00:26:21;;;;;;;172.30;106.60;;;;;;;-6.05;100.00;98701.24;105268;1299;62694;-82
2022/11/20 00:28:52;;;;;;;176.00;108.70;;;;;;;-6.00;100.00;98695.34;105315;1299;58737;-82
2022/11/20 00:31:19;;;;;;;177.50;108.30;;;;;;;-5.99;100.00;98693.43;105323;1298;58192;-81
2022/11/20 00:33:46;;;;;;;171.50;105.10;;;;;;;-6.01;100.00;98689.47;105345;1292;58254;-82
2022/11/20 00:36:17;;;;;;;173.10;103.00;;;;;;;-6.03;100.00;98692.25;105300;1291;58860;-82
2022/11/20 00:38:45;;;;;;;166.60;99.10;;;;;;;-6.04;100.00;98694.51;105292;1303;65081;-83
2022/11/20 00:41:13;;;;;;;165.70;102.10;;;;;;;-6.05;100.00;98690.54;105331;1298;58596;-82
2022/11/20 00:43:40;;;;;;;163.70;102.10;;;;;;;-6.06;100.00;98688.80;105309;1299;58452;-81
2022/11/20 00:46:08;;;;;;;159.00;102.20;;;;;;;-6.07;100.00;98691.24;105312;1299;75131;-82
2022/11/20 00:48:34;;;;;;;164.40;98.50;;;;;;;-6.09;100.00;98695.73;105310;1299;59136;-81
2022/11/20 00:51:01;;;;;;;170.90;100.30;;;;;;;-6.07;100.00;98696.09;105392;1296;58319;-82
2022/11/20 00:53:28;;;;;;;157.50;97.80;;;;;;;-6.06;100.00;98690.37;105319;1296;58177;-83
2022/11/20 00:56:09;;;;;;;165.30;106.90;;;;;;;-6.06;100.00;98690.52;105351;1298;58455;-83
2022/11/20 00:58:37;;;;;;;157.20;103.20;;;;;;;-6.04;100.00;98688.44;105399;1292;63878;-82
2022/11/20 01:01:09;;;;;;;171.70;102.10;;;;;;;-6.03;100.00;98684.98;105586;1286;60943;-79
2022/11/20 01:03:38;;;;;;;165.60;100.80;;;;;;;-6.01;100.00;98677.71;105830;1286;65357;-83
2022/11/20 01:06:11;;;;;;;157.20;99.40;;;;;;;-5.99;100.00;98677.88;105617;1295;58195;-82
2022/11/20 01:08:38;;;;;;;159.20;99.30;;;;;;;-6.00;100.00;98674.78;105827;1283;58077;-82
2022/11/20 01:11:14;;;;;;;158.90;96.60;;;;;;;-6.00;100.00;98674.77;105808;1292;64093;-82
2022/11/20 01:13:40;;;;;;;166.40;97.60;;;;;;;-5.97;100.00;98680.80;105834;1292;59898;-81
2022/11/20 01:16:15;;;;;;;162.60;99.90;;;;;;;-5.94;100.00;98678.35;105795;1292;64019;-81
2022/11/20 01:18:45;;;;;;;163.00;102.80;;;;;;;-5.92;100.00;98673.12;105784;1289;58269;-82
2022/11/20 01:21:16;;;;;;;149.90;99.10;;;;;;;-5.94;100.00;98667.28;105844;1286;58182;-83
2022/11/20 01:23:43;;;;;;;152.50;93.50;;;;;;;-5.98;100.00;98667.84;105548;1300;74956;-82
2022/11/20 01:26:13;;;;;;;148.70;95.50;;;;;;;-6.03;100.00;98659.92;105792;1294;70024;-82
2022/11/20 01:28:40;;;;;;;154.10;94.20;;;;;;;-6.06;100.00;98656.65;105695;1294;72956;-82
2022/11/20 01:31:15;;;;;;;143.70;91.90;;;;;;;-6.07;100.00;98654.40;105800;1292;57991;-83
2022/11/20 01:33:42;;;;;;;148.20;95.60;;;;;;;-6.04;100.00;98660.61;105794;1292;57901;-82
2022/11/20 01:36:10;;;;;;;149.40;94.40;;;;;;;-6.03;100.00;98656.80;105819;1286;66384;-83
2022/11/20 01:38:36;;;;;;;151.00;95.70;;;;;;;-6.04;100.00;98655.06;105751;1292;61062;-83
2022/11/20 01:41:02;;;;;;;152.20;95.70;;;;;;;-6.06;100.00;98656.30;105911;1292;58135;-83
2022/11/20 01:43:28;;;;;;;148.90;96.10;;;;;;;-6.09;100.00;98658.39;105990;1291;58293;-83
2022/11/20 01:46:11;;;;;;;150.80;92.00;;;;;;;-6.13;100.00;98656.67;105083;1285;1002377;-82
2022/11/20 01:48:42;;;;;;;146.90;93.10;;;;;;;-6.16;100.00;98652.90;105834;1292;65258;-82
2022/11/20 01:51:33;;;;;;;145.70;94.70;;;;;;;-6.20;100.00;98648.77;105918;1292;60172;-81
2022/11/20 01:54:02;;;;;;;148.30;91.50;;;;;;;-6.23;100.00;98648.77;105232;1284;1002599;-81
2022/11/20 01:56:33;;;;;;;142.30;93.80;;;;;;;-6.24;100.00;98651.05;105902;1283;58234;-82
2022/11/20 01:59:03;;;;;;;136.80;88.00;;;;;;;-6.22;100.00;98654.83;105969;1284;58014;-81
2022/11/20 02:01:29;;;;;;;150.30;91.90;;;;;;;-6.19;100.00;98655.16;105821;1293;73347;-82
2022/11/20 02:03:58;;;;;;;150.20;92.20;;;;;;;-6.19;100.00;98652.92;105910;1292;60073;-82
2022/11/20 02:06:30;;;;;;;148.30;90.70;;;;;;;-6.22;100.00;98652.75;105602;1289;62821;-82
2022/11/20 02:08:56;;;;;;;137.80;86.80;;;;;;;-6.27;100.00;98653.64;105911;1292;57993;-81
2022/11/20 02:11:22;;;;;;;135.80;86.70;;;;;;;-6.30;100.00;98659.02;105922;1292;58017;-82
2022/11/20 02:13:50;;;;;;;133.00;86.70;;;;;;;-6.34;100.00;98656.98;105812;1284;58933;-81
2022/11/20 02:16:23;;;;;;;136.20;85.40;;;;;;;-6.36;100.00;98664.92;105775;1292;68555;-81
2022/11/20 02:18:50;;;;;;;133.00;85.00;;;;;;;-6.36;100.00;98673.73;105729;1293;65500;-82
2022/11/20 02:21:41;;;;;;;141.40;88.40;;;;;;;-6.38;100.00;98678.94;105054;1292;1002090;-83
2022/11/20 02:24:21;;;;;;;141.40;84.40;;;;;;;-6.42;100.00;98681.73;105773;1294;58560;-82
2022/11/20 02:26:53;;;;;;;131.40;85.70;;;;;;;-6.45;100.00;98681.38;105502;1289;65378;-82
2022/11/20 02:29:27;;;;;;;138.20;84.50;;;;;;;-6.45;100.00;98681.72;105473;1289;61365;-82
2022/11/20 02:31:54;;;;;;;137.20;83.80;;;;;;;-6.44;100.00;98683.10;104733;1295;1002320;-82
2022/11/20 02:34:20;;;;;;;133.90;84.40;;;;;;;-6.42;100.00;98679.30;104746;1295;1002463;-81
2022/11/20 02:36:49;;;;;;;134.60;86.20;;;;;;;-6.38;100.00;98678.60;105492;1295;58057;-82
2022/11/20 02:39:16;;;;;;;146.40;88.50;;;;;;;-6.33;100.00;98676.67;105478;1288;72775;-81
2022/11/20 02:41:42;;;;;;;153.00;90.50;;;;;;;-6.28;100.00;98677.50;104740;1289;1002206;-82
2022/11/20 02:44:08;;;;;;;135.70;85.00;;;;;;;-6.25;100.00;98680.94;105475;1295;58002;-82
2022/11/20 02:46:35;;;;;;;141.40;85.70;;;;;;;-6.24;100.00;98679.55;105459;1286;58387;-82
2022/11/20 02:49:03;;;;;;;130.10;81.60;;;;;;;-6.23;100.00;98677.83;105483;1295;58300;-81
2022/11/20 02:51:29;;;;;;;135.10;84.80;;;;;;;-6.22;100.00;98677.98;105495;1296;73489;-82
2022/11/20 02:53:55;;;;;;;144.80;88.70;;;;;;;-6.19;100.00;98677.45;105507;1288;67469;-82
2022/11/20 02:56:21;;;;;;;142.50;87.90;;;;;;;-6.17;100.00;98672.09;105506;1295;58183;-82
2022/11/20 02:58:47;;;;;;;141.80;90.10;;;;;;;-6.18;100.00;98665.35;105710;1290;58135;-81
2022/11/20 03:01:14;;;;;;;139.30;86.40;;;;;;;-6.20;100.00;98667.10;104982;1293;1002286;-82
2022/11/20 03:03:40;;;;;;;137.20;83.90;;;;;;;-6.24;100.00;98667.80;105803;1293;58132;-81
2022/11/20 03:06:06;;;;;;;132.60;82.20;;;;;;;-6.29;100.00;98667.83;105800;1289;58051;-82
2022/11/20 03:08:32;;;;;;;129.40;85.00;;;;;;;-6.33;100.00;98674.24;105777;1290;58160;-82
2022/11/20 03:11:04;;;;;;;133.20;83.60;;;;;;;-6.40;100.00;98672.20;105801;1286;58153;-82
2022/11/20 03:13:30;;;;;;;129.50;80.50;;;;;;;-6.44;100.00;98674.29;105720;1291;58051;-81
2022/11/20 03:15:56;;;;;;;126.30;80.20;;;;;;;-6.49;100.00;98675.52;105769;1286;58552;-80
2022/11/20 03:18:21;;;;;;;133.40;82.30;;;;;;;-6.53;100.00;98677.96;105090;1292;1002715;-81
2022/11/20 03:20:47;;;;;;;127.90;80.60;;;;;;;-6.56;100.00;98675.38;105798;1285;58459;-82
2022/11/20 03:23:13;;;;;;;130.50;80.70;;;;;;;-6.59;100.00;98675.05;105796;1292;58062;-83
2022/11/20 03:25:39;;;;;;;130.00;77.60;;;;;;;-6.61;100.00;98674.86;105044;1291;1002785;-82
2022/11/20 03:28:05;;;;;;;127.00;77.40;;;;;;;-6.63;100.00;98674.02;105784;1292;58595;-82
2022/11/20 03:30:32;;;;;;;126.60;77.80;;;;;;;-6.64;100.00;98669.00;105073;1285;1015124;-81
2022/11/20 03:32:58;;;;;;;128.00;78.30;;;;;;;-6.67;100.00;98672.30;105790;1293;58583;-81
2022/11/20 03:35:24;;;;;;;125.60;79.00;;;;;;;-6.70;100.00;98667.98;105598;1296;58156;-83
2022/11/20 03:37:50;;;;;;;125.70;77.50;;;;;;;-6.72;100.00;98671.27;104960;1294;1002174;-82
2022/11/20 03:40:16;;;;;;;127.70;78.70;;;;;;;-6.73;100.00;98661.95;105796;1291;58133;-81
2022/11/20 03:42:45;;;;;;;123.60;77.20;;;;;;;-6.74;100.00;98661.97;105800;1293;58096;-81
2022/11/20 03:45:13;;;;;;;128.50;78.20;;;;;;;-6.76;100.00;98667.67;105030;1291;1002278;-82
2022/11/20 03:47:39;;;;;;;121.40;77.00;;;;;;;-6.78;100.00;98669.23;105793;1293;58255;-84
2022/11/20 03:50:06;;;;;;;122.40;76.80;;;;;;;-6.80;100.00;98667.52;105710;1292;75188;-81
2022/11/20 03:52:32;;;;;;;129.30;78.70;;;;;;;-6.81;100.00;98669.92;105801;1284;67289;-81
2022/11/20 03:54:58;;;;;;;132.90;78.00;;;;;;;-6.81;100.00;98669.06;105800;1286;58121;-81
2022/11/20 03:57:24;;;;;;;132.00;80.70;;;;;;;-6.80;100.00;98670.27;105150;1286;1015765;-81
2022/11/20 03:59:50;;;;;;;130.30;79.50;;;;;;;-6.81;100.00;98672.86;105878;1292;58065;-82
2022/11/20 04:02:16;;;;;;;125.90;77.10;;;;;;;-6.82;100.00;98670.27;105880;1292;58066;-81
2022/11/20 04:04:42;;;;;;;121.20;75.70;;;;;;;-6.84;100.00;98669.41;105732;1286;58209;-82
2022/11/20 04:07:08;;;;;;;122.90;77.10;;;;;;;-6.86;100.00;98668.56;105783;1283;58108;-81
2022/11/20 04:09:34;;;;;;;118.10;74.80;;;;;;;-6.87;100.00;98665.45;105656;1301;58115;-83
2022/11/20 04:12:00;;;;;;;122.20;74.00;;;;;;;-6.88;100.00;98661.31;105780;1286;72024;-81
2022/11/20 04:14:26;;;;;;;121.90;79.40;;;;;;;-6.89;100.00;98663.20;105778;1292;58125;-80
2022/11/20 04:16:52;;;;;;;120.00;76.80;;;;;;;-6.90;100.00;98656.83;105790;1293;58698;-82
2022/11/20 04:19:18;;;;;;;118.50;72.50;;;;;;;-6.90;100.00;98650.79;105689;1293;58115;-81
2022/11/20 04:21:44;;;;;;;120.90;75.70;;;;;;;-6.91;100.00;98647.51;105805;1284;58427;-82
2022/11/20 04:24:10;;;;;;;113.20;72.10;;;;;;;-6.94;100.00;98645.77;105816;1292;58237;-81
2022/11/20 04:26:37;;;;;;;129.80;78.00;;;;;;;-6.96;100.00;98645.96;105802;1286;58374;-81
2022/11/20 04:29:03;;;;;;;136.80;79.80;;;;;;;-6.98;100.00;98645.27;105821;1289;58164;-81
2022/11/20 04:31:32;;;;;;;132.20;77.30;;;;;;;-6.99;100.00;98646.48;105600;1291;58265;-81
2022/11/20 04:34:06;;;;;;;132.40;77.90;;;;;;;-7.02;100.00;98649.94;105802;1291;58134;-82
2022/11/20 04:36:32;;;;;;;130.60;78.60;;;;;;;-7.05;100.00;98648.56;105782;1291;71735;-81
2022/11/20 04:39:01;;;;;;;122.60;77.80;;;;;;;-7.07;100.00;98645.47;105796;1292;69154;-82
2022/11/20 04:41:30;;;;;;;116.70;73.40;;;;;;;-7.10;100.00;98648.07;105790;1292;71759;-83
2022/11/20 04:44:02;;;;;;;119.10;77.10;;;;;;;-7.16;100.00;98645.98;105830;1285;60705;-83
2022/11/20 04:46:30;;;;;;;126.80;72.60;;;;;;;-7.21;100.00;98644.62;105049;1293;1002206;-82
2022/11/20 04:48:56;;;;;;;117.60;73.70;;;;;;;-7.25;100.00;98641.36;105778;1292;73020;-82
2022/11/20 04:51:22;;;;;;;120.60;75.00;;;;;;;-7.27;100.00;98637.74;105637;1290;58005;-83
2022/11/20 04:53:49;;;;;;;122.90;74.00;;;;;;;-7.29;100.00;98636.71;105768;1291;58138;-82
2022/11/20 04:56:15;;;;;;;127.60;75.90;;;;;;;-7.28;100.00;98637.55;105775;1292;58111;-82
2022/11/20 04:58:42;;;;;;;128.50;77.30;;;;;;;-7.28;100.00;98633.08;105810;1283;58137;-83
2022/11/20 05:01:15;;;;;;;127.90;78.00;;;;;;;-7.28;100.00;98631.70;105047;1292;1002736;-83
2022/11/20 05:03:42;;;;;;;128.10;76.00;;;;;;;-7.30;100.00;98624.11;105819;1284;67605;-81
2022/11/20 05:06:10;;;;;;;128.40;76.90;;;;;;;-7.29;100.00;98626.18;105788;1293;72907;-83
2022/11/20 05:08:36;;;;;;;125.20;76.10;;;;;;;-7.31;100.00;98621.00;105785;1293;58829;-82
2022/11/20 05:11:03;;;;;;;126.10;77.20;;;;;;;-7.30;100.00;98620.48;105713;1287;58159;-82
2022/11/20 05:13:29;;;;;;;124.90;78.00;;;;;;;-7.30;100.00;98619.10;105046;1292;1002193;-82
2022/11/20 05:16:01;;;;;;;117.10;71.40;;;;;;;-7.32;100.00;98623.42;105765;1287;58478;-82
2022/11/20 05:18:27;;;;;;;125.80;76.90;;;;;;;-7.35;100.00;98618.77;105826;1285;65121;-83
2022/11/20 05:20:57;;;;;;;126.60;78.60;;;;;;;-7.37;100.00;98620.48;105753;1292;58085;-80
2022/11/20 05:23:24;;;;;;;123.10;73.50;;;;;;;-7.39;100.00;98616.70;105642;1293;59020;-82
2022/11/20 05:25:55;;;;;;;127.30;75.30;;;;;;;-7.39;100.00;98618.77;105788;1285;73053;-82
2022/11/20 05:28:21;;;;;;;119.20;73.60;;;;;;;-7.41;100.00;98619.63;105841;1292;59744;-82
2022/11/20 05:30:49;;;;;;;118.40;75.60;;;;;;;-7.44;100.00;98620.15;105798;1286;73567;-83
2022/11/20 05:33:15;;;;;;;112.80;67.40;;;;;;;-7.45;100.00;98614.13;105762;1292;58339;-82
2022/11/20 05:35:41;;;;;;;113.20;71.00;;;;;;;-7.49;100.00;98619.30;105722;1293;58946;-83
2022/11/20 05:38:08;;;;;;;121.70;75.30;;;;;;;-7.52;100.00;98613.27;105765;1292;58059;-81
2022/11/20 05:40:34;;;;;;;118.50;74.60;;;;;;;-7.54;100.00;98616.54;105785;1292;58088;-80
2022/11/20 05:43:00;;;;;;;135.40;82.10;;;;;;;-7.55;100.00;98614.83;105778;1286;58085;-81
2022/11/20 05:45:27;;;;;;;126.20;76.10;;;;;;;-7.54;100.00;98606.88;105772;1293;58357;-82
2022/11/20 05:47:53;;;;;;;122.50;76.70;;;;;;;-7.51;100.00;98607.23;105723;1283;58105;-82
2022/11/20 05:50:19;;;;;;;120.80;71.50;;;;;;;-7.49;100.00;98607.05;105775;1293;58108;-81
2022/11/20 05:52:45;;;;;;;122.40;76.20;;;;;;;-7.49;100.00;98607.56;105788;1284;58207;-82
2022/11/20 05:55:11;;;;;;;124.00;78.70;;;;;;;-7.49;100.00;98607.40;105042;1284;1003074;-82
2022/11/20 05:57:37;;;;;;;124.20;74.80;;;;;;;-7.46;100.00;98608.08;105804;1281;58096;-82
2022/11/20 06:00:06;;;;;;;111.60;73.20;;;;;;;-7.44;100.00;98610.85;105046;1285;1002835;-83
2022/11/20 06:02:34;;;;;;;119.90;75.50;;;;;;;-7.42;100.00;98610.49;105772;1292;58198;-82
2022/11/20 06:05:00;;;;;;;115.70;70.00;;;;;;;-7.41;100.00;98615.50;105802;1284;58544;-83
2022/11/20 06:07:27;;;;;;;121.10;76.40;;;;;;;-7.43;100.00;98609.63;105015;1284;1002896;-81
2022/11/20 06:09:53;;;;;;;116.80;73.00;;;;;;;-7.43;100.00;98607.91;105791;1287;58116;-81
2022/11/20 06:12:18;;;;;;;128.60;78.70;;;;;;;-7.41;100.00;98608.59;105779;1284;58320;-82
2022/11/20 06:14:45;;;;;;;126.60;78.00;;;;;;;-7.40;100.00;98604.45;105797;1280;58381;-83
2022/11/20 06:17:10;;;;;;;130.10;79.00;;;;;;;-7.38;100.00;98602.70;105791;1285;58113;-82
2022/11/20 06:19:36;;;;;;;123.90;75.50;;;;;;;-7.34;100.00;98605.65;105790;1292;58131;-82
2022/11/20 06:22:03;;;;;;;128.50;78.50;;;;;;;-7.32;100.00;98607.71;105786;1293;58190;-83
2022/11/20 06:24:29;;;;;;;120.90;78.70;;;;;;;-7.33;100.00;98605.13;105834;1284;58214;-81
2022/11/20 06:26:54;;;;;;;118.80;77.10;;;;;;;-7.33;100.00;98604.43;105796;1292;68581;-83
2022/11/20 06:29:20;;;;;;;130.90;84.30;;;;;;;-7.34;100.00;98602.36;105775;1290;58727;-83
2022/11/20 06:31:46;;;;;;;127.70;82.30;;;;;;;-7.33;100.00;98602.02;105649;1279;58352;-82
2022/11/20 06:34:12;;;;;;;125.90;83.20;;;;;;;-7.29;100.00;98601.85;105764;1283;58130;-82
2022/11/20 06:36:38;;;;;;;127.10;82.60;;;;;;;-7.27;100.00;98598.04;105779;1293;58743;-82
2022/11/20 06:39:04;;;;;;;125.00;79.50;;;;;;;-7.24;100.00;98596.30;105558;1292;58174;-82
2022/11/20 06:41:30;;;;;;;116.10;76.40;;;;;;;-7.20;100.00;98594.58;105798;1276;58212;-82
2022/11/20 06:43:57;;;;;;;121.80;79.80;;;;;;;-7.16;100.00;98590.23;105602;1289;58383;-82
2022/11/20 06:46:23;;;;;;;131.00;81.20;;;;;;;-7.14;100.00;98583.16;105892;1292;58245;-82
2022/11/20 06:48:49;;;;;;;128.50;80.90;;;;;;;-7.10;100.00;98582.12;105090;1285;1002707;-81
2022/11/20 06:51:17;;;;;;;133.50;83.00;;;;;;;-7.06;100.00;98584.17;105886;1284;57932;-82
2022/11/20 06:53:43;;;;;;;145.60;91.00;;;;;;;-7.00;100.00;98582.25;105608;1288;58413;-82
2022/11/20 06:56:09;;;;;;;146.00;90.60;;;;;;;-6.90;100.00;98578.95;105585;1287;58172;-82
2022/11/20 06:58:36;;;;;;;155.20;98.40;;;;;;;-6.79;100.00;98575.62;105548;1295;58351;-83
2022/11/20 07:01:20;;;;;;;147.30;94.70;;;;;;;-6.65;100.00;98574.34;105569;1296;67251;-83
2022/11/20 07:03:48;;;;;;;148.00;92.10;;;;;;;-6.53;100.00;98572.73;105450;1291;62830;-83
2022/11/20 07:06:15;;;;;;;161.70;99.00;;;;;;;-6.40;100.00;98573.17;104823;1295;1002384;-84
2022/11/20 07:08:41;;;;;;;159.30;96.10;;;;;;;-6.29;100.00;98575.52;105579;1295;58248;-83
2022/11/20 07:11:08;;;;;;;159.10;98.50;;;;;;;-6.18;100.00;98574.76;105559;1294;58462;-82
2022/11/20 07:13:34;;;;;;;158.40;99.00;;;;;;;-6.08;100.00;98579.87;105559;1295;58082;-82
2022/11/20 07:16:02;;;;;;;176.80;115.90;;;;;;;-5.98;100.00;98584.65;105557;1288;58591;-82
2022/11/20 07:18:28;;;;;;;175.10;115.90;;;;;;;-5.91;100.00;98586.47;105530;1296;59346;-83
2022/11/20 07:20:55;;;;;;;160.20;106.80;;;;;;;-5.85;100.00;98591.44;105568;1294;61789;-83
2022/11/20 07:23:21;;;;;;;146.10;92.90;;;;;;;-5.80;100.00;98591.57;105561;1296;58656;-84
2022/11/20 07:25:47;;;;;;;143.80;94.50;;;;;;;-5.78;100.00;98587.73;105767;1289;58491;-83
2022/11/20 07:28:13;;;;;;;139.90;90.40;;;;;;;-5.76;100.00;98586.51;105812;1293;58093;-83
2022/11/20 07:30:39;;;;;;;138.30;90.50;;;;;;;-5.75;100.00;98586.50;105759;1293;58328;-80
2022/11/20 07:33:05;;;;;;;138.40;88.90;;;;;;;-5.73;100.00;98584.07;105830;1286;58018;-80
2022/11/20 07:35:31;;;;;;;138.10;88.00;;;;;;;-5.71;100.00;98581.63;105699;1292;58226;-82
2022/11/20 07:37:57;;;;;;;147.80;92.90;;;;;;;-5.65;100.00;98588.16;105821;1290;58398;-84
2022/11/20 07:40:23;;;;;;;144.80;93.20;;;;;;;-5.59;100.00;98589.32;105783;1284;58112;-82
2022/11/20 07:42:55;;;;;;;145.20;91.90;;;;;;;-5.53;100.00;98586.15;105784;1294;58155;-83
2022/11/20 07:45:22;;;;;;;154.00;93.10;;;;;;;-5.48;100.00;98584.20;105083;1286;1002574;-79
2022/11/20 07:47:49;;;;;;;154.80;94.40;;;;;;;-5.42;100.00;98581.20;105785;1287;65063;-82
2022/11/20 07:50:17;;;;;;;161.00;96.20;;;;;;;-5.36;100.00;98582.35;105742;1286;67940;-83
2022/11/20 07:52:43;;;;;;;159.30;101.40;;;;;;;-5.27;100.00;98584.16;105742;1293;64858;-81
2022/11/20 07:55:12;;;;;;;156.70;97.20;;;;;;;-5.19;100.00;98584.61;105767;1284;57991;-82
2022/11/20 07:57:38;;;;;;;146.90;97.40;;;;;;;-5.11;100.00;98586.26;105779;1291;58018;-81
2022/11/20 08:00:08;;;;;;;145.20;98.40;;;;;;;-5.02;100.00;98586.33;105793;1286;58468;-83
2022/11/20 08:02:42;;;;;;;150.40;96.00;;;;;;;-4.93;100.00;98588.65;105600;1288;60104;-82
2022/11/20 08:05:10;;;;;;;144.00;92.70;;;;;;;-4.85;100.00;98593.41;105798;1290;72658;-82
2022/11/20 08:07:40;;;;;;;140.70;91.70;;;;;;;-4.78;100.00;98596.45;105812;1293;58153;-82
2022/11/20 08:10:11;;;;;;;137.50;89.10;;;;;;;-4.72;100.00;98597.23;105757;1286;58020;-81
2022/11/20 08:15:35;;;;;;;151.40;95.70;;;;;;;-4.47;100.00;98592.95;105745;1277;66565;-82
2022/11/20 08:18:11;;;;;;;146.00;94.90;;;;;;;-4.34;100.00;98592.42;105801;1292;63181;-83
2022/11/20 08:20:38;;;;;;;146.60;97.30;;;;;;;-4.20;100.00;98593.27;104899;1294;1002290;-82
2022/11/20 08:23:06;;;;;;;130.00;88.90;;;;;;;-4.07;100.00;98593.96;105742;1287;58199;-82
2022/11/20 08:25:34;;;;;;;130.10;88.30;;;;;;;-3.94;100.00;98595.15;105817;1292;65303;-82
2022/11/20 08:28:01;;;;;;;136.90;92.00;;;;;;;-3.81;100.00;98595.81;105819;1294;59768;-81
2022/11/20 08:30:29;;;;;;;139.60;93.10;;;;;;;-3.66;100.00;98592.11;105799;1293;65027;-81
2022/11/20 08:33:01;;;;;;;141.40;96.90;;;;;;;-3.52;100.00;98588.55;105810;1292;58223;-83
2022/11/20 08:35:27;;;;;;;139.30;95.10;;;;;;;-3.37;100.00;98588.83;105816;1292;58235;-82
2022/11/20 08:37:54;;;;;;;140.50;96.70;;;;;;;-3.25;100.00;98585.31;105806;1286;58175;-84
2022/11/20 08:40:20;;;;;;;141.70;99.10;;;;;;;-3.11;100.00;98586.64;105784;1284;58174;-82
2022/11/20 08:42:50;;;;;;;143.80;98.40;;;;;;;-2.99;100.00;98582.92;105824;1291;58287;-83
2022/11/20 08:45:18;;;;;;;143.80;99.90;;;;;;;-2.87;100.00;98582.17;105811;1286;58245;-83
2022/11/20 08:47:45;;;;;;;135.80;93.80;;;;;;;-2.75;100.00;98578.98;105716;1290;58141;-83
2022/11/20 08:50:13;;;;;;;133.60;94.80;;;;;;;-2.63;100.00;98575.78;105787;1286;65395;-78
2022/11/20 08:52:40;;;;;;;130.40;92.20;;;;;;;-2.50;100.00;98577.79;105828;1284;60112;-78
2022/11/20 08:55:07;;;;;;;125.30;87.10;;;;;;;-2.37;100.00;98577.33;105849;1290;64237;-76
2022/11/20 08:57:34;;;;;;;125.60;85.40;;;;;;;-2.28;100.00;98576.94;105863;1291;58168;-75
2022/11/20 09:00:00;;;;;;;119.20;85.20;;;;;;;-2.22;100.00;98571.42;105887;1298;58240;-77
2022/11/20 09:02:27;;;;;;;130.10;88.70;;;;;;;-2.14;100.00;98570.89;105858;1289;66447;-77
2022/11/20 09:04:55;;;;;;;122.50;87.00;;;;;;;-2.04;100.00;98565.81;105822;1283;58466;-78
2022/11/20 09:07:22;;;;;;;116.10;87.60;;;;;;;-2.04;100.00;98562.84;105874;1290;71623;-80
2022/11/20 09:09:48;;;;;;;118.00;85.20;;;;;;;-2.08;100.00;98566.58;105616;1301;60740;-78
2022/11/20 09:12:14;;;;;;;118.70;86.80;;;;;;;-2.15;100.00;98564.29;105809;1287;58158;-79
2022/11/20 09:14:41;;;;;;;115.70;78.70;;;;;;;-2.17;100.00;98567.83;105654;1292;58205;-85
2022/11/20 09:17:07;;;;;;;122.00;83.10;;;;;;;-2.15;100.00;98572.85;105874;1289;58108;-80
2022/11/20 09:19:33;;;;;;;118.60;81.60;;;;;;;-2.11;100.00;98573.11;105867;1284;58133;-82
2022/11/20 09:22:01;;;;;;;122.40;84.50;;;;;;;-2.04;100.00;98569.47;105847;1287;58340;-80
2022/11/20 09:24:27;;;;;;;121.20;86.50;;;;;;;-1.95;100.00;98568.91;105869;1291;58140;-80
2022/11/20 09:26:53;;;;;;;129.80;87.30;;;;;;;-1.91;100.00;98566.73;105875;1293;58377;-81
2022/11/20 09:29:19;;;;;;;129.20;95.00;;;;;;;-1.87;100.00;98564.02;105651;1293;58651;-81
2022/11/20 09:31:45;;;;;;;132.20;96.30;;;;;;;-1.79;100.00;98564.86;105909;1286;58945;-83
2022/11/20 09:34:12;;;;;;;124.20;91.60;;;;;;;-1.68;100.00;98564.96;105846;1290;58174;-81
2022/11/20 09:36:38;;;;;;;129.40;92.60;;;;;;;-1.62;100.00;98566.17;105870;1290;58260;-81
2022/11/20 09:39:04;;;;;;;126.10;89.60;;;;;;;-1.53;100.00;98564.73;105876;1276;58121;-81
2022/11/20 09:41:45;;;;;;;127.80;90.40;;;;;;;-1.42;100.00;98568.12;105907;1283;57937;-83
2022/11/20 09:44:31;;;;;;;133.20;95.40;;;;;;;-1.37;100.00;98574.27;105885;1290;65029;-90
2022/11/20 09:47:11;;;;;;;135.30;95.70;;;;;;;-1.30;100.00;98570.09;105606;1296;58743;-80
2022/11/20 09:49:46;;;;;;;131.50;91.00;;;;;;;-1.25;100.00;98568.92;105835;1290;58067;-77
2022/11/20 09:52:30;;;;;;;123.30;91.10;;;;;;;-1.19;100.00;98569.63;105913;1290;65281;-84
2022/11/20 09:54:56;;;;;;;127.70;89.90;;;;;;;-1.15;100.00;98568.30;105740;1286;58900;-84
2022/11/20 09:57:28;;;;;;;132.90;90.90;;;;;;;-1.11;100.00;98566.80;105983;1290;65334;-84
2022/11/20 09:59:59;;;;;;;137.20;99.60;;;;;;;-1.08;100.00;98564.80;105886;1290;58102;-84
2022/11/20 10:02:28;;;;;;;141.80;103.80;;;;;;;-1.02;100.00;98556.80;105992;1291;60350;-83
2022/11/20 10:05:03;;;;;;;128.70;93.50;;;;;;;-0.96;100.00;98553.30;105975;1290;65268;-83
2022/11/20 10:07:43;;;;;;;137.40;92.70;;;;;;;-0.92;100.00;98546.75;105982;1292;60170;-82
2022/11/20 10:10:29;;;;;;;292.50;169.20;;;;;;;-0.94;100.00;98545.40;105741;1290;64848;-83
2022/11/20 10:13:15;;;;;;;183.50;116.90;;;;;;;-0.90;100.00;98545.13;106036;1289;58187;-84
2022/11/20 10:16:00;;;;;;;145.80;103.40;;;;;;;-0.79;100.00;98543.41;105951;1290;60320;-85
2022/11/20 10:18:34;;;;;;;134.10;95.50;;;;;;;-0.69;100.00;98539.29;105983;1290;64134;-83
2022/11/20 10:21:00;;;;;;;128.20;90.40;;;;;;;-0.58;100.00;98533.39;106013;1290;67418;-84
2022/11/20 10:23:38;;;;;;;125.40;89.50;;;;;;;-0.48;100.00;98535.55;105984;1280;58105;-82
2022/11/20 10:26:17;;;;;;;123.60;90.90;;;;;;;-0.38;100.00;98533.50;106029;1290;58037;-84
2022/11/20 10:29:07;;;;;;;121.80;82.80;;;;;;;-0.32;100.00;98531.04;105969;1291;58187;-84
2022/11/20 10:31:37;;;;;;;116.10;79.20;;;;;;;-0.23;100.00;98524.66;105999;1290;63980;-85
2022/11/20 10:34:16;;;;;;;118.30;80.50;;;;;;;-0.18;100.00;98521.71;105886;1290;60597;-83
2022/11/20 10:36:52;;;;;;;109.10;80.10;;;;;;;-0.16;100.00;98513.98;105697;1288;70518;-83
2022/11/20 10:39:29;;;;;;;104.70;73.00;;;;;;;-0.14;100.00;98508.85;105941;1290;58431;-83
2022/11/20 10:41:56;;;;;;;104.00;72.60;;;;;;;-0.17;100.00;98501.95;105955;1297;59971;-83
2022/11/20 10:47:16;;;;;;;107.20;75.80;;;;;;;-0.12;100.00;98497.42;105870;1291;60262;-83
2022/11/20 10:49:48;;;;;;;110.90;74.80;;;;;;;-0.14;100.00;98497.83;105962;1291;65004;-83
2022/11/20 10:52:23;;;;;;;103.60;76.10;;;;;;;-0.16;100.00;98497.91;105764;1298;58270;-82
2022/11/20 10:55:07;;;;;;;106.80;72.50;;;;;;;-0.17;100.00;98498.80;105965;1289;58060;-84
2022/11/20 10:57:52;;;;;;;92.80;67.30;;;;;;;-0.14;100.00;98502.05;105797;1291;66238;-83
2022/11/20 11:00:18;;;;;;;102.10;71.60;;;;;;;-0.11;100.00;98505.42;105889;1291;59609;-82
2022/11/20 11:02:48;;;;;;;83.90;59.70;;;;;;;-0.07;100.00;98500.77;105949;1291;58168;-83
2022/11/20 11:05:22;;;;;;;88.60;60.00;;;;;;;-0.07;100.00;98493.97;105961;1289;58625;-82